createdAt,value
2023-04-26T00:00:09.509Z,572.00
2023-04-26T00:01:09.272Z,569.00
2023-04-26T00:02:09.271Z,545.00
2023-04-26T00:03:09.367Z,570.00
2023-04-26T00:04:09.546Z,589.00
2023-04-26T00:05:09.653Z,526.00
2023-04-26T00:06:09.305Z,510.00
2023-04-26T00:07:09.316Z,516.00
2023-04-26T00:08:09.319Z,522.00
2023-04-26T00:09:09.349Z,553.00
2023-04-26T00:10:09.339Z,571.00
2023-04-26T00:11:09.353Z,558.00
2023-04-26T00:12:09.354Z,554.00
2023-04-26T00:13:09.390Z,512.00
2023-04-26T00:14:09.461Z,544.00
2023-04-26T00:15:09.450Z,531.00
2023-04-26T00:16:09.515Z,535.00
2023-04-26T00:17:09.508Z,552.00
2023-04-26T00:18:09.597Z,543.00
2023-04-26T00:19:09.594Z,537.00
2023-04-26T00:20:09.620Z,554.00
2023-04-26T00:21:09.694Z,558.00
2023-04-26T00:22:09.707Z,588.00
2023-04-26T00:23:09.732Z,615.00
2023-04-26T00:24:09.758Z,618.00
2023-04-26T00:25:09.826Z,621.00
2023-04-26T00:26:09.831Z,589.00
2023-04-26T00:27:09.861Z,574.00
2023-04-26T00:29:28.708Z,500.00
2023-04-26T00:30:28.677Z,500.00
2023-04-26T00:31:28.563Z,500.00
2023-04-26T00:32:28.567Z,500.00
2023-04-26T00:33:28.796Z,500.00
2023-04-26T00:34:28.530Z,510.00
2023-04-26T00:35:28.506Z,519.00
2023-04-26T00:36:28.477Z,514.00
2023-04-26T00:37:29.264Z,500.00
2023-04-26T00:38:28.777Z,498.00
2023-04-26T00:39:28.516Z,518.00
2023-04-26T00:40:29.268Z,526.00
2023-04-26T00:41:28.578Z,503.00
2023-04-26T00:42:28.410Z,526.00
2023-04-26T00:43:28.360Z,503.00
2023-04-26T00:44:28.434Z,504.00
2023-04-26T00:45:28.439Z,506.00
2023-04-26T00:46:28.313Z,531.00
2023-04-26T00:47:28.284Z,536.00
2023-04-26T00:48:28.259Z,552.00
2023-04-26T00:49:28.252Z,563.00
2023-04-26T00:50:28.225Z,566.00
2023-04-26T00:51:28.225Z,570.00
2023-04-26T00:52:28.185Z,567.00
2023-04-26T00:53:28.191Z,575.00
2023-04-26T00:54:28.157Z,572.00
2023-04-26T00:55:28.157Z,585.00
2023-04-26T00:56:28.129Z,586.00
2023-04-26T00:57:28.094Z,583.00
2023-04-26T00:58:28.085Z,586.00
2023-04-26T00:59:28.183Z,544.00
2023-04-26T01:00:28.092Z,584.00
2023-04-26T01:01:28.096Z,593.00
2023-04-26T01:02:28.127Z,597.00
2023-04-26T01:03:28.116Z,577.00
2023-04-26T01:04:28.058Z,598.00
2023-04-26T01:05:27.984Z,599.00
2023-04-26T01:06:27.971Z,604.00
2023-04-26T01:07:27.973Z,621.00
2023-04-26T01:08:27.937Z,630.00
2023-04-26T01:09:27.913Z,615.00
2023-04-26T01:10:27.885Z,635.00
2023-04-26T01:11:27.879Z,647.00
2023-04-26T01:12:27.845Z,647.00
2023-04-26T01:13:27.825Z,637.00
2023-04-26T01:14:27.825Z,632.00
2023-04-26T01:15:27.796Z,636.00
2023-04-26T01:16:27.778Z,631.00
2023-04-26T01:17:27.828Z,639.00
2023-04-26T01:18:27.728Z,646.00
2023-04-26T01:19:27.711Z,625.00
2023-04-26T01:20:27.679Z,598.00
2023-04-26T01:21:27.655Z,623.00
2023-04-26T01:22:27.626Z,628.00
2023-04-26T01:23:27.625Z,607.00
2023-04-26T01:24:27.638Z,605.00
2023-04-26T01:25:27.657Z,588.00
2023-04-26T01:26:27.675Z,601.00
2023-04-26T01:27:27.707Z,625.00
2023-04-26T01:28:27.747Z,640.00
2023-04-26T01:29:27.745Z,618.00
2023-04-26T01:30:27.740Z,633.00
2023-04-26T01:31:27.792Z,597.00
2023-04-26T01:32:27.839Z,611.00
2023-04-26T01:33:27.753Z,612.00
2023-04-26T01:34:27.754Z,613.00
2023-04-26T01:35:27.730Z,615.00
2023-04-26T01:36:27.708Z,631.00
2023-04-26T01:37:27.656Z,633.00
2023-04-26T01:38:27.654Z,634.00
2023-04-26T01:39:27.622Z,652.00
2023-04-26T01:40:27.582Z,658.00
2023-04-26T01:41:27.594Z,651.00
2023-04-26T01:42:27.556Z,636.00
2023-04-26T01:43:27.516Z,629.00
2023-04-26T01:44:27.492Z,627.00
2023-04-26T01:45:27.475Z,635.00
2023-04-26T01:46:27.521Z,629.00
2023-04-26T01:47:27.484Z,616.00
2023-04-26T01:48:27.500Z,633.00
2023-04-26T01:49:27.543Z,645.00
2023-04-26T01:50:27.527Z,658.00
2023-04-26T01:51:27.529Z,681.00
2023-04-26T01:52:27.564Z,721.00
2023-04-26T01:53:27.573Z,740.00
2023-04-26T01:54:27.590Z,737.00
2023-04-26T01:55:27.603Z,742.00
2023-04-26T01:56:27.611Z,748.00
2023-04-26T01:57:27.645Z,755.00
2023-04-26T01:58:27.644Z,765.00
2023-04-26T01:59:27.680Z,789.00
2023-04-26T02:00:27.680Z,776.00
2023-04-26T02:01:27.715Z,803.00
2023-04-26T02:02:27.741Z,774.00
2023-04-26T02:03:27.728Z,777.00
2023-04-26T02:04:27.800Z,805.00
2023-04-26T02:05:27.861Z,769.00
2023-04-26T02:06:27.766Z,714.00
2023-04-26T02:07:27.805Z,771.00
2023-04-26T02:08:27.800Z,758.00
2023-04-26T02:09:27.831Z,804.00
2023-04-26T02:10:27.835Z,805.00
2023-04-26T02:11:27.878Z,798.00
2023-04-26T02:12:27.888Z,780.00
2023-04-26T02:13:27.904Z,765.00
2023-04-26T02:14:27.930Z,690.00
2023-04-26T02:15:27.940Z,768.00
2023-04-26T02:16:27.999Z,675.00
2023-04-26T02:17:27.957Z,677.00
2023-04-26T02:18:27.924Z,692.00
2023-04-26T02:19:27.887Z,717.00
2023-04-26T02:20:27.873Z,732.00
2023-04-26T02:21:27.853Z,775.00
2023-04-26T02:22:27.875Z,813.00
2023-04-26T02:23:27.825Z,834.00
2023-04-26T02:24:27.829Z,826.00
2023-04-26T02:25:27.793Z,854.00
2023-04-26T02:26:27.766Z,848.00
2023-04-26T02:27:27.776Z,853.00
2023-04-26T02:28:27.728Z,874.00
2023-04-26T02:29:43.171Z,867.00
2023-04-26T02:30:28.722Z,867.00
2023-04-26T02:31:27.744Z,843.00
2023-04-26T02:32:27.744Z,813.00
2023-04-26T02:33:27.706Z,840.00
2023-04-26T02:34:27.637Z,852.00
2023-04-26T02:35:28.297Z,853.00
2023-04-26T02:36:27.656Z,871.00
2023-04-26T02:37:27.666Z,892.00
2023-04-26T02:38:27.551Z,903.00
2023-04-26T02:39:27.535Z,904.00
2023-04-26T02:40:27.518Z,891.00
2023-04-26T02:41:27.505Z,888.00
2023-04-26T02:42:27.477Z,830.00
2023-04-26T02:43:27.453Z,804.00
2023-04-26T02:44:27.450Z,808.00
2023-04-26T02:45:27.459Z,816.00
2023-04-26T02:46:27.498Z,803.00
2023-04-26T02:47:27.521Z,825.00
2023-04-26T02:48:27.530Z,839.00
2023-04-26T02:49:27.531Z,825.00
2023-04-26T02:50:27.546Z,863.00
2023-04-26T02:51:27.564Z,865.00
2023-04-26T02:52:27.587Z,853.00
2023-04-26T02:53:27.598Z,866.00
2023-04-26T02:54:27.618Z,846.00
2023-04-26T02:55:27.645Z,874.00
2023-04-26T02:56:27.653Z,864.00
2023-04-26T02:57:27.671Z,869.00
2023-04-26T02:58:27.693Z,885.00
2023-04-26T02:59:27.726Z,893.00
2023-04-26T03:00:27.743Z,915.00
2023-04-26T03:01:27.774Z,887.00
2023-04-26T03:02:27.894Z,824.00
2023-04-26T03:03:28.017Z,855.00
2023-04-26T03:04:27.804Z,872.00
2023-04-26T03:05:27.830Z,879.00
2023-04-26T03:06:27.867Z,912.00
2023-04-26T03:07:27.860Z,905.00
2023-04-26T03:08:27.899Z,910.00
2023-04-26T03:09:27.973Z,894.00
2023-04-26T03:10:27.975Z,905.00
2023-04-26T03:11:27.957Z,878.00
2023-04-26T03:12:28.037Z,898.00
2023-04-26T03:13:28.044Z,913.00
2023-04-26T03:14:28.039Z,922.00
2023-04-26T03:15:28.065Z,946.00
2023-04-26T03:16:28.124Z,967.00
2023-04-26T03:17:28.140Z,947.00
2023-04-26T03:18:28.127Z,920.00
2023-04-26T03:19:28.152Z,945.00
2023-04-26T03:20:28.167Z,931.00
2023-04-26T03:21:28.188Z,951.00
2023-04-26T03:22:28.200Z,985.00
2023-04-26T03:23:28.232Z,982.00
2023-04-26T03:24:28.235Z,995.00
2023-04-26T03:25:28.410Z,983.00
2023-04-26T03:26:28.283Z,991.00
2023-04-26T03:27:28.313Z,987.00
2023-04-26T03:28:28.326Z,1004.00
2023-04-26T03:29:28.358Z,990.00
2023-04-26T03:30:28.389Z,987.00
2023-04-26T03:31:28.453Z,1015.00
2023-04-26T03:32:28.411Z,1028.00
2023-04-26T03:33:28.448Z,1031.00
2023-04-26T03:34:28.467Z,1025.00
2023-04-26T03:35:28.496Z,1026.00
2023-04-26T03:36:28.521Z,1034.00
2023-04-26T03:37:28.599Z,1005.00
2023-04-26T03:38:28.619Z,1026.00
2023-04-26T03:39:28.694Z,1003.00
2023-04-26T03:40:28.707Z,1019.00
2023-04-26T03:41:28.609Z,1012.00
2023-04-26T03:42:28.654Z,1028.00
2023-04-26T03:43:29.324Z,1011.00
2023-04-26T03:44:30.995Z,971.00
2023-04-26T03:45:28.868Z,983.00
2023-04-26T03:46:28.906Z,989.00
2023-04-26T03:47:28.904Z,997.00
2023-04-26T03:48:28.865Z,983.00
2023-04-26T03:49:28.888Z,974.00
2023-04-26T03:50:28.988Z,1006.00
2023-04-26T03:51:28.964Z,996.00
2023-04-26T03:52:28.993Z,1024.00
2023-04-26T03:53:29.002Z,1017.00
2023-04-26T03:54:28.966Z,1011.00
2023-04-26T03:55:29.009Z,1008.00
2023-04-26T03:56:29.108Z,936.00
2023-04-26T03:57:29.078Z,918.00
2023-04-26T03:58:29.042Z,971.00
2023-04-26T03:59:29.070Z,994.00
2023-04-26T04:00:29.085Z,1003.00
2023-04-26T04:01:29.118Z,1004.00
2023-04-26T04:02:29.281Z,1023.00
2023-04-26T04:03:29.348Z,1004.00
2023-04-26T04:04:29.356Z,1015.00
2023-04-26T04:05:29.249Z,1007.00
2023-04-26T04:06:29.230Z,986.00
2023-04-26T04:07:29.389Z,986.00
2023-04-26T04:08:29.260Z,1002.00
2023-04-26T04:09:29.298Z,1016.00
2023-04-26T04:10:29.333Z,1037.00
2023-04-26T04:11:29.345Z,1032.00
2023-04-26T04:12:29.390Z,1047.00
2023-04-26T04:13:29.438Z,1048.00
2023-04-26T04:14:29.435Z,1057.00
2023-04-26T04:15:29.488Z,1056.00
2023-04-26T04:16:29.613Z,1058.00
2023-04-26T04:17:29.536Z,1017.00
2023-04-26T04:18:29.535Z,996.00
2023-04-26T04:19:29.577Z,1015.00
2023-04-26T04:20:29.564Z,1015.00
2023-04-26T04:21:29.569Z,1016.00
2023-04-26T04:22:29.593Z,1016.00
2023-04-26T04:23:29.562Z,1040.00
2023-04-26T04:24:29.569Z,1034.00
2023-04-26T04:25:29.582Z,1052.00
2023-04-26T04:26:29.553Z,1058.00
2023-04-26T04:27:29.549Z,1091.00
2023-04-26T04:28:29.548Z,1096.00
2023-04-26T04:29:29.556Z,1080.00
2023-04-26T04:30:29.554Z,1081.00
2023-04-26T04:31:29.593Z,1094.00
2023-04-26T04:32:29.562Z,1099.00
2023-04-26T04:33:29.597Z,1072.00
2023-04-26T04:34:29.547Z,1088.00
2023-04-26T04:35:29.541Z,1092.00
2023-04-26T04:36:29.526Z,1118.00
2023-04-26T04:37:29.571Z,1122.00
2023-04-26T04:38:29.605Z,1135.00
2023-04-26T04:39:29.636Z,1115.00
2023-04-26T04:40:29.684Z,1110.00
2023-04-26T04:41:29.709Z,1116.00
2023-04-26T04:42:29.725Z,1146.00
2023-04-26T04:43:29.782Z,1126.00
2023-04-26T04:44:29.817Z,1126.00
2023-04-26T04:45:29.833Z,1129.00
2023-04-26T04:46:29.891Z,1145.00
2023-04-26T04:47:29.907Z,1133.00
2023-04-26T04:48:29.938Z,1142.00
2023-04-26T04:49:29.992Z,1114.00
2023-04-26T04:50:30.043Z,1147.00
2023-04-26T04:51:30.092Z,1139.00
2023-04-26T04:52:30.138Z,1138.00
2023-04-26T04:53:30.178Z,1144.00
2023-04-26T04:54:30.209Z,1150.00
2023-04-26T04:55:30.256Z,1158.00
2023-04-26T04:56:30.277Z,1147.00
2023-04-26T04:57:30.330Z,1150.00
2023-04-26T04:58:30.372Z,1153.00
2023-04-26T04:59:30.442Z,1168.00
2023-04-26T05:00:30.463Z,1179.00
2023-04-26T05:01:30.516Z,1181.00
2023-04-26T05:02:30.567Z,1191.00
2023-04-26T05:03:30.660Z,1181.00
2023-04-26T05:04:30.736Z,1166.00
2023-04-26T05:05:30.660Z,1125.00
2023-04-26T05:06:30.687Z,1155.00
2023-04-26T05:07:30.739Z,1182.00
2023-04-26T05:08:30.787Z,1155.00
2023-04-26T05:09:30.818Z,1165.00
2023-04-26T05:10:30.853Z,1167.00
2023-04-26T05:11:30.885Z,1169.00
2023-04-26T05:12:30.947Z,1169.00
2023-04-26T05:13:31.011Z,1176.00
2023-04-26T05:14:31.059Z,1152.00
2023-04-26T05:15:31.164Z,1150.00
2023-04-26T05:16:31.085Z,1151.00
2023-04-26T05:17:31.121Z,1163.00
2023-04-26T05:18:31.239Z,1161.00
2023-04-26T05:19:31.180Z,1168.00
2023-04-26T05:20:31.214Z,1169.00
2023-04-26T05:21:31.178Z,1170.00
2023-04-26T05:22:31.140Z,1177.00
2023-04-26T05:23:31.142Z,1179.00
2023-04-26T05:24:31.114Z,1172.00
2023-04-26T05:25:31.145Z,1178.00
2023-04-26T05:26:31.082Z,1200.00
2023-04-26T05:27:31.082Z,1185.00
2023-04-26T05:28:31.049Z,1193.00
2023-04-26T05:29:31.136Z,1209.00
2023-04-26T05:30:31.054Z,1195.00
2023-04-26T05:31:31.090Z,1163.00
2023-04-26T05:32:31.136Z,1190.00
2023-04-26T05:33:31.163Z,1214.00
2023-04-26T05:34:31.201Z,1240.00
2023-04-26T05:35:31.238Z,1236.00
2023-04-26T05:36:31.303Z,1242.00
2023-04-26T05:37:31.307Z,1250.00
2023-04-26T05:38:31.336Z,1316.00
2023-04-26T05:39:31.384Z,1304.00
2023-04-26T05:40:31.408Z,1366.00
2023-04-26T05:41:31.440Z,1428.00
2023-04-26T05:42:31.484Z,1486.00
2023-04-26T05:43:31.483Z,1547.00
2023-04-26T05:44:31.516Z,1581.00
2023-04-26T05:45:31.606Z,1621.00
2023-04-26T05:46:31.661Z,1649.00
2023-04-26T05:47:31.587Z,1703.00
2023-04-26T05:48:31.612Z,1747.00
2023-04-26T05:49:31.635Z,1769.00
2023-04-26T05:50:31.653Z,1800.00
2023-04-26T05:51:31.735Z,1786.00
2023-04-26T05:52:31.637Z,1815.00
2023-04-26T05:53:31.636Z,1880.00
2023-04-26T05:54:31.645Z,1883.00
2023-04-26T05:55:31.607Z,1902.00
2023-04-26T05:56:31.645Z,1947.00
2023-04-26T05:57:31.624Z,2009.00
2023-04-26T05:58:31.545Z,2075.00
2023-04-26T05:59:31.543Z,2106.00
2023-04-26T06:00:31.762Z,2176.00
2023-04-26T06:01:31.522Z,2179.00
2023-04-26T06:02:31.515Z,2183.00
2023-04-26T06:03:31.540Z,2180.00
2023-04-26T06:04:31.666Z,2199.00
2023-04-26T06:05:31.550Z,2256.00
2023-04-26T06:06:31.385Z,2343.00
2023-04-26T06:07:31.388Z,2462.00
2023-04-26T06:08:31.368Z,2533.00
2023-04-26T06:09:31.285Z,2572.00
2023-04-26T06:10:31.287Z,2607.00
2023-04-26T06:11:31.259Z,2619.00
2023-04-26T06:12:31.225Z,2618.00
2023-04-26T06:13:31.230Z,2689.00
2023-04-26T06:14:31.256Z,2703.00
2023-04-26T06:15:31.123Z,2740.00
2023-04-26T06:16:31.136Z,2744.00
2023-04-26T06:17:31.106Z,2740.00
2023-04-26T06:18:31.026Z,2767.00
2023-04-26T06:19:31.044Z,2815.00
2023-04-26T06:20:31.001Z,2846.00
2023-04-26T06:21:31.034Z,2841.00
2023-04-26T06:22:31.049Z,2837.00
2023-04-26T06:23:31.113Z,2809.00
2023-04-26T06:24:31.129Z,2803.00
2023-04-26T06:25:31.150Z,2855.00
2023-04-26T06:26:31.184Z,2892.00
2023-04-26T06:27:31.145Z,2893.00
2023-04-26T06:28:31.109Z,2879.00
2023-04-26T06:29:31.077Z,2889.00
2023-04-26T06:30:31.068Z,2842.00
2023-04-26T06:31:31.176Z,2850.00
2023-04-26T06:32:31.013Z,2836.00
2023-04-26T06:33:31.085Z,2841.00
2023-04-26T06:34:30.917Z,2815.00
2023-04-26T06:35:30.929Z,2801.00
2023-04-26T06:36:31.023Z,2798.00
2023-04-26T06:37:31.032Z,2809.00
2023-04-26T06:38:31.063Z,2808.00
2023-04-26T06:39:31.068Z,2843.00
2023-04-26T06:40:31.107Z,2926.00
2023-04-26T06:41:31.134Z,2949.00
2023-04-26T06:42:31.484Z,2959.00
2023-04-26T06:43:31.193Z,2966.00
2023-04-26T06:44:31.271Z,2967.00
2023-04-26T06:45:31.209Z,2975.00
2023-04-26T06:46:31.113Z,2993.00
2023-04-26T06:47:31.111Z,2990.00
2023-04-26T06:48:30.989Z,2981.00
2023-04-26T06:49:31.069Z,2969.00
2023-04-26T06:50:30.966Z,2942.00
2023-04-26T06:51:30.914Z,2895.00
2023-04-26T06:52:30.953Z,2846.00
2023-04-26T06:53:30.991Z,2825.00
2023-04-26T06:54:30.981Z,2770.00
2023-04-26T06:55:31.006Z,2740.00
2023-04-26T06:56:31.060Z,2680.00
2023-04-26T06:57:31.088Z,2651.00
2023-04-26T06:58:31.117Z,2620.00
2023-04-26T06:59:31.170Z,2533.00
2023-04-26T07:00:31.568Z,2501.00
2023-04-26T07:01:31.206Z,2467.00
2023-04-26T07:02:31.349Z,2441.00
2023-04-26T07:03:31.339Z,2433.00
2023-04-26T07:04:31.504Z,2384.00
2023-04-26T07:05:31.508Z,2357.00
2023-04-26T07:06:31.323Z,2292.00
2023-04-26T07:07:31.315Z,2263.00
2023-04-26T07:08:31.300Z,2241.00
2023-04-26T07:09:31.519Z,2181.00
2023-04-26T07:10:31.339Z,2124.00
2023-04-26T07:11:31.321Z,2096.00
2023-04-26T07:12:31.360Z,2064.00
2023-04-26T07:13:31.479Z,2059.00
2023-04-26T07:14:31.360Z,2021.00
2023-04-26T07:15:31.365Z,2051.00
2023-04-26T07:16:31.427Z,2031.00
2023-04-26T07:17:31.433Z,2041.00
2023-04-26T07:18:31.450Z,2022.00
2023-04-26T07:19:31.528Z,2017.00
2023-04-26T07:20:31.530Z,2016.00
2023-04-26T07:21:31.528Z,1986.00
2023-04-26T07:22:31.420Z,1958.00
2023-04-26T07:23:31.412Z,2013.00
2023-04-26T07:24:31.483Z,2066.00
2023-04-26T07:25:31.467Z,2097.00
2023-04-26T07:26:31.501Z,2141.00
2023-04-26T07:27:31.536Z,2141.00
2023-04-26T07:28:31.558Z,2181.00
2023-04-26T07:29:31.592Z,2202.00
2023-04-26T07:30:31.645Z,2229.00
2023-04-26T07:31:31.649Z,2255.00
2023-04-26T07:32:31.738Z,2254.00
2023-04-26T07:33:31.914Z,2237.00
2023-04-26T07:34:31.829Z,2205.00
2023-04-26T07:35:31.823Z,2218.00
2023-04-26T07:36:31.750Z,2205.00
2023-04-26T07:37:31.747Z,2115.00
2023-04-26T07:38:31.871Z,2066.00
2023-04-26T07:39:31.634Z,2147.00
2023-04-26T07:40:31.885Z,2273.00
2023-04-26T07:41:32.518Z,2330.00
2023-04-26T07:42:31.492Z,2385.00
2023-04-26T07:43:31.487Z,2418.00
2023-04-26T07:44:31.520Z,2433.00
2023-04-26T07:45:31.796Z,2422.00
2023-04-26T07:46:31.599Z,2401.00
2023-04-26T07:47:31.640Z,2366.00
2023-04-26T07:48:32.498Z,2308.00
2023-04-26T07:49:31.718Z,2259.00
2023-04-26T07:50:31.761Z,2218.00
2023-04-26T07:51:31.734Z,2156.00
2023-04-26T07:52:31.765Z,2092.00
2023-04-26T07:53:31.770Z,2056.00
2023-04-26T07:54:31.822Z,2050.00
2023-04-26T07:55:32.449Z,2025.00
2023-04-26T07:56:31.967Z,2019.00
2023-04-26T07:57:31.926Z,2021.00
2023-04-26T07:58:31.945Z,1987.00
2023-04-26T07:59:31.996Z,1946.00
2023-04-26T08:00:31.997Z,1904.00
2023-04-26T08:01:32.085Z,1910.00
2023-04-26T08:02:44.098Z,1912.00
2023-04-26T08:03:33.259Z,1913.00
2023-04-26T08:04:32.078Z,1916.00
2023-04-26T08:05:32.235Z,1925.00
2023-04-26T08:06:32.755Z,1918.00
2023-04-26T08:07:31.900Z,1898.00
2023-04-26T08:08:31.858Z,1877.00
2023-04-26T08:09:31.808Z,1872.00
2023-04-26T08:10:31.932Z,1868.00
2023-04-26T08:11:31.752Z,1854.00
2023-04-26T08:12:31.872Z,1826.00
2023-04-26T08:13:31.781Z,1805.00
2023-04-26T08:14:31.801Z,1781.00
2023-04-26T08:15:32.466Z,1744.00
2023-04-26T08:16:31.940Z,1732.00
2023-04-26T08:17:31.928Z,1711.00
2023-04-26T08:18:31.955Z,1750.00
2023-04-26T08:19:32.020Z,1738.00
2023-04-26T08:20:32.007Z,1713.00
2023-04-26T08:21:32.021Z,1718.00
2023-04-26T08:22:32.054Z,1641.00
2023-04-26T08:23:32.092Z,887.00
2023-04-26T08:24:32.084Z,427.00
2023-04-26T08:25:32.085Z,400.00
2023-04-26T08:26:32.051Z,400.00
2023-04-26T08:27:32.037Z,400.00
2023-04-26T08:28:32.021Z,400.00
2023-04-26T08:29:32.046Z,400.00
2023-04-26T08:30:32.114Z,408.00
2023-04-26T08:31:32.050Z,537.00
2023-04-26T08:32:31.935Z,644.00
2023-04-26T08:33:31.896Z,796.00
2023-04-26T08:34:31.906Z,850.00
2023-04-26T08:35:31.876Z,845.00
2023-04-26T08:36:31.847Z,826.00
2023-04-26T08:37:31.870Z,772.00
2023-04-26T08:38:31.820Z,668.00
2023-04-26T08:39:31.788Z,618.00
2023-04-26T08:40:31.753Z,563.00
2023-04-26T08:41:31.723Z,494.00
2023-04-26T08:42:31.686Z,415.00
2023-04-26T08:43:31.691Z,400.00
2023-04-26T08:44:31.643Z,400.00
2023-04-26T08:45:31.950Z,400.00
2023-04-26T08:46:31.636Z,400.00
2023-04-26T08:47:31.602Z,421.00
2023-04-26T08:48:31.525Z,466.00
2023-04-26T08:49:31.491Z,500.00
2023-04-26T08:50:31.455Z,485.00
2023-04-26T08:51:31.418Z,481.00
2023-04-26T08:52:31.394Z,491.00
2023-04-26T08:53:31.354Z,480.00
2023-04-26T08:54:31.325Z,543.00
2023-04-26T08:55:31.292Z,588.00
2023-04-26T08:56:31.256Z,614.00
2023-04-26T08:57:31.228Z,589.00
2023-04-26T08:58:31.201Z,543.00
2023-04-26T08:59:31.193Z,498.00
2023-04-26T09:00:31.158Z,501.00
2023-04-26T09:01:31.429Z,524.00
2023-04-26T09:02:31.306Z,569.00
2023-04-26T09:03:31.513Z,597.00
2023-04-26T09:04:31.451Z,641.00
2023-04-26T09:05:31.603Z,696.00
2023-04-26T09:06:31.352Z,779.00
2023-04-26T09:07:31.423Z,900.00
2023-04-26T09:08:31.456Z,986.00
2023-04-26T09:09:31.497Z,1077.00
2023-04-26T09:10:31.559Z,1140.00
2023-04-26T09:11:31.554Z,1232.00
2023-04-26T09:12:31.623Z,1358.00
2023-04-26T09:13:31.703Z,1448.00
2023-04-26T09:14:31.674Z,1545.00
2023-04-26T09:15:31.712Z,1610.00
2023-04-26T09:16:31.820Z,1689.00
2023-04-26T09:17:31.911Z,1767.00
2023-04-26T09:18:31.814Z,1832.00
2023-04-26T09:19:31.845Z,1900.00
2023-04-26T09:20:31.893Z,1994.00
2023-04-26T09:21:31.931Z,2002.00
2023-04-26T09:22:31.963Z,2105.00
2023-04-26T09:23:32.025Z,2159.00
2023-04-26T09:24:32.032Z,2232.00
2023-04-26T09:25:32.994Z,2288.00
2023-04-26T09:26:32.068Z,2302.00
2023-04-26T09:27:32.125Z,2367.00
2023-04-26T09:28:32.160Z,2387.00
2023-04-26T09:29:32.212Z,2420.00
2023-04-26T09:30:32.184Z,2483.00
2023-04-26T09:31:32.278Z,2537.00
2023-04-26T09:32:32.232Z,2557.00
2023-04-26T09:33:32.255Z,2610.00
2023-04-26T09:34:32.304Z,2633.00
2023-04-26T09:35:32.313Z,2676.00
2023-04-26T09:36:32.589Z,2719.00
2023-04-26T09:37:33.379Z,2731.00
2023-04-26T09:38:32.408Z,2779.00
2023-04-26T09:39:32.417Z,2805.00
2023-04-26T09:40:32.477Z,2830.00
2023-04-26T09:41:32.578Z,2830.00
2023-04-26T09:42:32.651Z,2826.00
2023-04-26T09:43:33.748Z,1926.00
2023-04-26T09:44:32.468Z,2178.00
2023-04-26T09:45:32.446Z,2181.00
2023-04-26T09:46:32.521Z,2202.00
2023-04-26T09:47:32.488Z,2243.00
2023-04-26T09:48:32.373Z,2339.00
2023-04-26T09:49:32.348Z,2511.00
2023-04-26T09:50:32.315Z,2582.00
2023-04-26T09:51:32.315Z,2634.00
2023-04-26T09:52:32.317Z,2702.00
2023-04-26T09:53:32.356Z,2632.00
2023-04-26T09:54:32.217Z,2681.00
2023-04-26T09:55:35.505Z,2766.00
2023-04-26T09:56:32.332Z,2774.00
2023-04-26T09:57:32.184Z,2764.00
2023-04-26T09:58:32.187Z,2833.00
2023-04-26T09:59:32.155Z,2760.00
2023-04-26T10:00:32.227Z,2754.00
2023-04-26T10:01:32.454Z,2809.00
2023-04-26T10:02:32.209Z,2808.00
2023-04-26T10:03:32.191Z,2722.00
2023-04-26T10:04:32.013Z,2772.00
2023-04-26T10:05:33.831Z,2793.00
2023-04-26T10:06:31.896Z,2837.00
2023-04-26T10:07:31.869Z,2838.00
2023-04-26T10:08:31.807Z,2841.00
2023-04-26T10:09:31.844Z,2847.00
2023-04-26T10:10:31.722Z,2861.00
2023-04-26T10:11:32.562Z,3004.00
2023-04-26T10:12:31.651Z,3089.00
2023-04-26T10:13:31.594Z,3058.00
2023-04-26T10:14:31.568Z,3704.00
2023-04-26T10:15:31.620Z,3999.00
2023-04-26T10:16:31.527Z,4125.00
2023-04-26T10:17:31.594Z,4003.00
2023-04-26T10:18:31.508Z,4230.00
2023-04-26T10:19:31.522Z,4412.00
2023-04-26T10:20:31.708Z,4273.00
2023-04-26T10:21:31.586Z,4093.00
2023-04-26T10:22:31.541Z,4002.00
2023-04-26T10:23:31.616Z,3832.00
2023-04-26T10:24:31.568Z,3744.00
2023-04-26T10:25:31.610Z,3687.00
2023-04-26T10:26:31.624Z,3563.00
2023-04-26T10:27:31.597Z,3565.00
2023-04-26T10:28:31.750Z,3568.00
2023-04-26T10:29:31.530Z,3576.00
2023-04-26T10:30:31.575Z,3592.00
2023-04-26T10:31:31.525Z,3649.00
2023-04-26T10:32:31.468Z,3717.00
2023-04-26T10:33:31.611Z,3592.00
2023-04-26T10:34:31.406Z,3594.00
2023-04-26T10:35:31.419Z,3580.00
2023-04-26T10:36:32.621Z,3689.00
2023-04-26T10:37:31.450Z,3902.00
2023-04-26T10:38:31.332Z,4097.00
2023-04-26T10:39:31.311Z,3953.00
2023-04-26T10:40:31.326Z,3764.00
2023-04-26T10:41:31.241Z,3508.00
2023-04-26T10:42:31.214Z,3355.00
2023-04-26T10:43:31.204Z,3354.00
2023-04-26T10:44:31.261Z,3309.00
2023-04-26T10:45:31.455Z,3262.00
2023-04-26T10:46:31.381Z,3164.00
2023-04-26T10:47:31.187Z,3007.00
2023-04-26T10:48:31.154Z,2891.00
2023-04-26T10:49:31.113Z,2808.00
2023-04-26T10:50:31.118Z,2683.00
2023-04-26T10:51:31.118Z,2611.00
2023-04-26T10:52:31.094Z,2513.00
2023-04-26T10:53:31.096Z,2413.00
2023-04-26T10:54:31.090Z,2345.00
2023-04-26T10:55:31.086Z,2270.00
2023-04-26T10:56:31.108Z,2206.00
2023-04-26T10:57:32.043Z,2124.00
2023-04-26T10:58:31.110Z,1971.00
2023-04-26T10:59:39.957Z,1838.00
2023-04-26T11:00:32.993Z,1754.00
2023-04-26T11:01:31.103Z,1675.00
2023-04-26T11:02:32.054Z,1589.00
2023-04-26T11:03:33.196Z,1479.00
2023-04-26T11:04:31.100Z,1357.00
2023-04-26T11:05:31.013Z,1181.00
2023-04-26T11:06:31.030Z,898.00
2023-04-26T11:07:31.028Z,822.00
2023-04-26T11:08:30.997Z,786.00
2023-04-26T11:09:31.004Z,804.00
2023-04-26T11:10:30.935Z,664.00
2023-04-26T11:11:30.884Z,750.00
2023-04-26T11:12:30.883Z,800.00
2023-04-26T11:13:30.901Z,869.00
2023-04-26T11:14:30.791Z,965.00
2023-04-26T11:15:30.754Z,1043.00
2023-04-26T11:16:30.782Z,1116.00
2023-04-26T11:17:30.744Z,1230.00
2023-04-26T11:18:30.736Z,1308.00
2023-04-26T11:19:30.739Z,1283.00
2023-04-26T11:20:30.623Z,1313.00
2023-04-26T11:21:31.035Z,1301.00
2023-04-26T11:22:30.544Z,1406.00
2023-04-26T11:23:30.512Z,1469.00
2023-04-26T11:24:30.514Z,1523.00
2023-04-26T11:25:30.611Z,1696.00
2023-04-26T11:26:30.429Z,1859.00
2023-04-26T11:27:30.403Z,1978.00
2023-04-26T11:28:31.655Z,2053.00
2023-04-26T11:29:30.742Z,2129.00
2023-04-26T11:30:30.304Z,2157.00
2023-04-26T11:31:30.326Z,2281.00
2023-04-26T11:32:30.266Z,2285.00
2023-04-26T11:33:30.229Z,2312.00
2023-04-26T11:34:30.199Z,2376.00
2023-04-26T11:35:30.164Z,2292.00
2023-04-26T11:36:30.519Z,2345.00
2023-04-26T11:37:30.096Z,2454.00
2023-04-26T11:38:30.063Z,2637.00
2023-04-26T11:39:30.057Z,2824.00
2023-04-26T11:40:30.055Z,2827.00
2023-04-26T11:41:29.990Z,2810.00
2023-04-26T11:42:29.946Z,2791.00
2023-04-26T11:43:29.964Z,2787.00
2023-04-26T11:44:29.904Z,2781.00
2023-04-26T11:45:29.865Z,2786.00
2023-04-26T11:46:29.877Z,2790.00
2023-04-26T11:47:29.835Z,2747.00
2023-04-26T11:48:29.781Z,2748.00
2023-04-26T11:49:29.811Z,2756.00
2023-04-26T11:50:29.723Z,2723.00
2023-04-26T11:51:30.633Z,2734.00
2023-04-26T11:52:29.699Z,2678.00
2023-04-26T11:53:29.649Z,2641.00
2023-04-26T11:54:29.686Z,2647.00
2023-04-26T11:55:29.603Z,2618.00
2023-04-26T11:56:29.565Z,2642.00
2023-04-26T11:57:29.772Z,2633.00
2023-04-26T11:58:29.517Z,2659.00
2023-04-26T11:59:29.482Z,2670.00
2023-04-26T12:00:29.564Z,2607.00
2023-04-26T12:01:29.445Z,2577.00
2023-04-26T12:02:29.607Z,2554.00
2023-04-26T12:03:29.497Z,2580.00
2023-04-26T12:04:30.167Z,2577.00
2023-04-26T12:05:29.316Z,2588.00
2023-04-26T12:06:29.295Z,2556.00
2023-04-26T12:07:29.252Z,2554.00
2023-04-26T12:08:29.219Z,2556.00
2023-04-26T12:09:29.182Z,2557.00
2023-04-26T12:10:29.177Z,2561.00
2023-04-26T12:11:29.134Z,2539.00
2023-04-26T12:12:29.133Z,2463.00
2023-04-26T12:13:29.070Z,2422.00
2023-04-26T12:14:29.049Z,2424.00
2023-04-26T12:15:29.120Z,2435.00